TGPYTNCM

Guest
Details From TGPY - Point Salines Intl
To TNCM - St Maarten - Princess Juliana Intl
Flight Number -
Tags Generated
Created
Modified
Stats Distance 370 nm / 686 km
Max Altitude 0 ft / 0 m
Waypoints 3
Social Downloads 2
Likes 0
Share VATSIM

Download

Looking for another format? Having issues loading an existing format? Contact us
Advertisement - Login to hide

Notes

Generated

Route

TGPY PJM TNCM

ID Type Via Altitude (ft/m) Position (lat/lon) Dist (leg/tot) Name
O TGPY APT - 0 / 0 12.00430 / -61.79881 - / 0 nm
PJM VOR - 0 / 0 18.03811 / -63.11828 370 / 370 nm ST MAARTEN VOR-DME
O TNCM APT - 0 / 0 18.03937 / -63.11961 0 / 370 nm

Altitude Profile

Advertisement - Login to hide

Weather


0- 5 10 15 20 25 30 35+ Temperature / °C

Clouds and Precipitation
Forecast for 2018-10-17 06:00 UTC. Updated 4 hours ago

Ground ~20,000 ft ~40,000 ft Winds

TGPY

Details ICAO TGPY (GND)
Name Grenada/Bishop International
Region Grenada
Timezone America/Grenada (UTC-4.0)
Stats Elevation 41 ft / 12 m (AMSL)
Location 12.004100° -61.786100°
Runways 1
Magnetic Variation 14.841° W

METAR

TGPY 170700Z 10010KT 9999 SCT016 28/25 Q1008 NOSIG

Decode

TAF

TAF TAF TGPY 162222Z 1700/1724 09012KT 9999 FEW014CB SCT018 BECMG 1704/1706 5000 SHRA FEW010CB BKN016 BKN035

Decode

Departure Runways

ID Width Length Bearing (true/mag) Surface Threshold Overrun Markings Lighting
10 148 ft / 45 m 9,012 ft / 2,747 m 90.26° / 105.10° ASPHALT 0 ft / 0 m 0 ft / 0 m PREC-APP CENTERLINE EDGE THRESHOLD SALS
28 148 ft / 45 m 9,012 ft / 2,747 m 270.26° / 285.10° ASPHALT 0 ft / 0 m 0 ft / 0 m PREC-APP CENTERLINE EDGE THRESHOLD

TNCM

Details ICAO TNCM (SXM)
Name Princess Juliana Int'l
Region Caribbean Netherlands, Aruba, Curaçao, Sint Maarten
Timezone Unknown
Stats Elevation 12 ft / 4 m (AMSL)
Location 18.040900° -63.108900°
Runways 1
Magnetic Variation 14.348° W

METAR

TNCM 170700Z 08015G25KT 030V120 9999 BKN018 27/23 Q1013 A2991

Decode

TAF

TAF TNCM 170536Z 1706/1806 08014KT P6SM VCSH FEW018 SCT045 FM171200 10016KT P6SM VCTS SCT018CB BKN040 FM172200 09012KT P6SM VCSH SCT020 SCT050

Decode

Destination Runways

ID Width Length Bearing (true/mag) Surface Threshold Overrun Markings Lighting
10 148 ft / 45 m 7,553 ft / 2,302 m 81.44° / 95.79° ASPHALT 331 ft / 101 m 164 ft / 50 m PREC-APP EDGE THRESHOLD REIL-OMNI
28 148 ft / 45 m 7,553 ft / 2,302 m 261.45° / 275.79° ASPHALT 0 ft / 0 m 200 ft / 61 m APP EDGE THRESHOLD

Popular Alternatives